sensor_id;sensor_type;location;lat;lon;timestamp;P1;durP1;ratioP1;P2;durP2;ratioP2
46266;SDS011;31998;48.798;15.066;2023-06-22T00:01:16;3.67;;;3.17;;
46266;SDS011;31998;48.798;15.066;2023-06-22T00:03:41;5.80;;;3.40;;
46266;SDS011;31998;48.798;15.066;2023-06-22T00:06:06;3.57;;;2.80;;
46266;SDS011;31998;48.798;15.066;2023-06-22T00:08:31;5.10;;;3.17;;
46266;SDS011;31998;48.798;15.066;2023-06-22T00:10:56;3.20;;;3.00;;
46266;SDS011;31998;48.798;15.066;2023-06-22T00:13:22;4.70;;;4.30;;
46266;SDS011;31998;48.798;15.066;2023-06-22T00:15:47;6.20;;;3.93;;
46266;SDS011;31998;48.798;15.066;2023-06-22T00:18:12;6.03;;;4.60;;
46266;SDS011;31998;48.798;15.066;2023-06-22T00:20:38;152.57;;;7.83;;
46266;SDS011;31998;48.798;15.066;2023-06-22T00:23:04;2.40;;;2.30;;
46266;SDS011;31998;48.798;15.066;2023-06-22T00:25:42;2.53;;;2.33;;
46266;SDS011;31998;48.798;15.066;2023-06-22T00:28:08;3.37;;;3.27;;
46266;SDS011;31998;48.798;15.066;2023-06-22T00:30:34;3.53;;;3.10;;
46266;SDS011;31998;48.798;15.066;2023-06-22T00:32:59;2.80;;;2.60;;
46266;SDS011;31998;48.798;15.066;2023-06-22T00:35:24;4.87;;;3.70;;
46266;SDS011;31998;48.798;15.066;2023-06-22T00:37:54;3.87;;;3.60;;
46266;SDS011;31998;48.798;15.066;2023-06-22T00:40:25;3.40;;;2.40;;
46266;SDS011;31998;48.798;15.066;2023-06-22T00:42:50;3.47;;;3.17;;
46266;SDS011;31998;48.798;15.066;2023-06-22T00:45:15;22.70;;;2.97;;
46266;SDS011;31998;48.798;15.066;2023-06-22T00:47:41;2.50;;;2.40;;
46266;SDS011;31998;48.798;15.066;2023-06-22T00:50:08;4.40;;;2.43;;
46266;SDS011;31998;48.798;15.066;2023-06-22T00:52:35;1.97;;;1.30;;
46266;SDS011;31998;48.798;15.066;2023-06-22T00:55:01;28.60;;;3.70;;
46266;SDS011;31998;48.798;15.066;2023-06-22T00:57:27;5.93;;;3.30;;
46266;SDS011;31998;48.798;15.066;2023-06-22T00:59:53;31.53;;;4.57;;
46266;SDS011;31998;48.798;15.066;2023-06-22T01:02:18;9.90;;;3.90;;
46266;SDS011;31998;48.798;15.066;2023-06-22T01:04:43;19.23;;;5.70;;
46266;SDS011;31998;48.798;15.066;2023-06-22T01:07:57;4.63;;;4.30;;
46266;SDS011;31998;48.798;15.066;2023-06-22T01:12:34;2.57;;;2.47;;
46266;SDS011;31998;48.798;15.066;2023-06-22T01:15:05;3.30;;;3.10;;
46266;SDS011;31998;48.798;15.066;2023-06-22T01:17:33;2.60;;;2.50;;
46266;SDS011;31998;48.798;15.066;2023-06-22T01:19:59;16.77;;;4.47;;
46266;SDS011;31998;48.798;15.066;2023-06-22T01:22:26;6.33;;;4.07;;
46266;SDS011;31998;48.798;15.066;2023-06-22T01:25:06;11.03;;;4.43;;
46266;SDS011;31998;48.798;15.066;2023-06-22T01:27:39;6.60;;;4.00;;
46266;SDS011;31998;48.798;15.066;2023-06-22T01:30:10;4.00;;;3.50;;
46266;SDS011;31998;48.798;15.066;2023-06-22T01:32:37;12.00;;;3.53;;
46266;SDS011;31998;48.798;15.066;2023-06-22T01:35:04;3.07;;;2.87;;
46266;SDS011;31998;48.798;15.066;2023-06-22T01:37:30;6.20;;;2.10;;
46266;SDS011;31998;48.798;15.066;2023-06-22T01:39:57;3.63;;;2.43;;
46266;SDS011;31998;48.798;15.066;2023-06-22T01:42:23;3.20;;;3.00;;
46266;SDS011;31998;48.798;15.066;2023-06-22T01:44:49;3.07;;;2.87;;
46266;SDS011;31998;48.798;15.066;2023-06-22T01:47:15;73.80;;;3.30;;
46266;SDS011;31998;48.798;15.066;2023-06-22T01:49:41;2.47;;;2.37;;
46266;SDS011;31998;48.798;15.066;2023-06-22T01:52:07;116.63;;;6.97;;
46266;SDS011;31998;48.798;15.066;2023-06-22T01:54:32;3.57;;;3.37;;
46266;SDS011;31998;48.798;15.066;2023-06-22T01:56:57;3.20;;;3.10;;
46266;SDS011;31998;48.798;15.066;2023-06-22T02:01:53;3.13;;;3.00;;
46266;SDS011;31998;48.798;15.066;2023-06-22T02:04:27;2.73;;;2.57;;
46266;SDS011;31998;48.798;15.066;2023-06-22T02:06:55;2.17;;;2.00;;
46266;SDS011;31998;48.798;15.066;2023-06-22T02:09:21;25.63;;;2.53;;
46266;SDS011;31998;48.798;15.066;2023-06-22T02:11:47;1.37;;;1.27;;
46266;SDS011;31998;48.798;15.066;2023-06-22T02:14:16;44.53;;;2.10;;
46266;SDS011;31998;48.798;15.066;2023-06-22T02:16:42;3.43;;;2.17;;
46266;SDS011;31998;48.798;15.066;2023-06-22T02:19:07;2.30;;;2.10;;
46266;SDS011;31998;48.798;15.066;2023-06-22T02:21:33;3.13;;;2.70;;
46266;SDS011;31998;48.798;15.066;2023-06-22T02:23:58;2.63;;;2.20;;
46266;SDS011;31998;48.798;15.066;2023-06-22T02:26:24;12.13;;;2.03;;
46266;SDS011;31998;48.798;15.066;2023-06-22T02:28:50;5.50;;;1.60;;
46266;SDS011;31998;48.798;15.066;2023-06-22T02:31:15;6.33;;;3.23;;
46266;SDS011;31998;48.798;15.066;2023-06-22T02:33:41;20.67;;;4.10;;
46266;SDS011;31998;48.798;15.066;2023-06-22T02:36:06;3.07;;;2.93;;
46266;SDS011;31998;48.798;15.066;2023-06-22T02:38:34;2.80;;;2.63;;
46266;SDS011;31998;48.798;15.066;2023-06-22T02:40:59;2.90;;;2.80;;
46266;SDS011;31998;48.798;15.066;2023-06-22T02:43:25;3.17;;;2.87;;
46266;SDS011;31998;48.798;15.066;2023-06-22T02:45:50;3.70;;;3.50;;
46266;SDS011;31998;48.798;15.066;2023-06-22T02:48:15;6.67;;;4.10;;
46266;SDS011;31998;48.798;15.066;2023-06-22T02:50:40;3.40;;;2.10;;
46266;SDS011;31998;48.798;15.066;2023-06-22T02:53:06;2.60;;;1.90;;
46266;SDS011;31998;48.798;15.066;2023-06-22T02:55:31;2.27;;;2.07;;
46266;SDS011;31998;48.798;15.066;2023-06-22T02:57:56;119.30;;;4.50;;
46266;SDS011;31998;48.798;15.066;2023-06-22T03:00:22;1.90;;;1.80;;
46266;SDS011;31998;48.798;15.066;2023-06-22T03:02:48;2.80;;;2.70;;
46266;SDS011;31998;48.798;15.066;2023-06-22T03:05:14;3.87;;;2.77;;
46266;SDS011;31998;48.798;15.066;2023-06-22T03:07:40;2.53;;;2.33;;
46266;SDS011;31998;48.798;15.066;2023-06-22T03:10:06;3.47;;;2.97;;
46266;SDS011;31998;48.798;15.066;2023-06-22T03:12:32;7.47;;;3.47;;
46266;SDS011;31998;48.798;15.066;2023-06-22T03:14:57;5.77;;;3.10;;
46266;SDS011;31998;48.798;15.066;2023-06-22T03:17:23;3.17;;;2.97;;
46266;SDS011;31998;48.798;15.066;2023-06-22T03:19:48;5.70;;;4.50;;
46266;SDS011;31998;48.798;15.066;2023-06-22T03:22:13;7.77;;;4.20;;
46266;SDS011;31998;48.798;15.066;2023-06-22T03:24:40;4.13;;;3.83;;
46266;SDS011;31998;48.798;15.066;2023-06-22T03:27:05;4.67;;;3.03;;
46266;SDS011;31998;48.798;15.066;2023-06-22T03:29:31;3.73;;;3.43;;
46266;SDS011;31998;48.798;15.066;2023-06-22T03:31:56;5.27;;;3.27;;
46266;SDS011;31998;48.798;15.066;2023-06-22T03:34:21;3.97;;;2.40;;
46266;SDS011;31998;48.798;15.066;2023-06-22T03:36:46;2.70;;;2.60;;
46266;SDS011;31998;48.798;15.066;2023-06-22T03:39:12;2.70;;;2.50;;
46266;SDS011;31998;48.798;15.066;2023-06-22T03:41:37;3.17;;;2.97;;
46266;SDS011;31998;48.798;15.066;2023-06-22T03:44:02;3.60;;;2.90;;
46266;SDS011;31998;48.798;15.066;2023-06-22T03:46:28;3.07;;;2.97;;
46266;SDS011;31998;48.798;15.066;2023-06-22T03:48:53;3.37;;;2.93;;
46266;SDS011;31998;48.798;15.066;2023-06-22T03:51:18;9.17;;;2.90;;
46266;SDS011;31998;48.798;15.066;2023-06-22T03:53:43;3.10;;;2.90;;
46266;SDS011;31998;48.798;15.066;2023-06-22T03:56:09;2.77;;;2.57;;
46266;SDS011;31998;48.798;15.066;2023-06-22T03:58:34;3.73;;;2.83;;
46266;SDS011;31998;48.798;15.066;2023-06-22T04:01:00;6.63;;;4.30;;
46266;SDS011;31998;48.798;15.066;2023-06-22T04:03:25;5.50;;;3.60;;
46266;SDS011;31998;48.798;15.066;2023-06-22T04:05:50;3.93;;;3.37;;
46266;SDS011;31998;48.798;15.066;2023-06-22T04:08:16;8.27;;;3.73;;
46266;SDS011;31998;48.798;15.066;2023-06-22T04:10:41;4.40;;;3.60;;
46266;SDS011;31998;48.798;15.066;2023-06-22T04:13:07;4.30;;;3.70;;
46266;SDS011;31998;48.798;15.066;2023-06-22T04:15:32;3.93;;;3.70;;
46266;SDS011;31998;48.798;15.066;2023-06-22T04:17:57;3.77;;;3.10;;
46266;SDS011;31998;48.798;15.066;2023-06-22T04:20:23;3.50;;;3.20;;
46266;SDS011;31998;48.798;15.066;2023-06-22T04:22:50;4.90;;;3.97;;
46266;SDS011;31998;48.798;15.066;2023-06-22T04:25:15;4.97;;;4.53;;
46266;SDS011;31998;48.798;15.066;2023-06-22T04:27:41;4.47;;;4.03;;
46266;SDS011;31998;48.798;15.066;2023-06-22T04:30:06;9.20;;;5.03;;
46266;SDS011;31998;48.798;15.066;2023-06-22T04:32:32;5.43;;;4.67;;
46266;SDS011;31998;48.798;15.066;2023-06-22T04:34:57;4.73;;;4.30;;
46266;SDS011;31998;48.798;15.066;2023-06-22T04:37:22;5.27;;;3.87;;
46266;SDS011;31998;48.798;15.066;2023-06-22T04:39:48;7.30;;;5.60;;
46266;SDS011;31998;48.798;15.066;2023-06-22T04:42:14;6.07;;;5.50;;
46266;SDS011;31998;48.798;15.066;2023-06-22T04:44:39;9.03;;;5.97;;
46266;SDS011;31998;48.798;15.066;2023-06-22T04:47:05;5.50;;;5.00;;
46266;SDS011;31998;48.798;15.066;2023-06-22T04:49:33;6.30;;;4.80;;
46266;SDS011;31998;48.798;15.066;2023-06-22T04:52:04;8.83;;;5.40;;
46266;SDS011;31998;48.798;15.066;2023-06-22T04:54:29;13.70;;;6.60;;
46266;SDS011;31998;48.798;15.066;2023-06-22T04:57:01;5.77;;;5.23;;
46266;SDS011;31998;48.798;15.066;2023-06-22T04:59:27;13.53;;;6.40;;
46266;SDS011;31998;48.798;15.066;2023-06-22T05:01:55;5.50;;;5.10;;
46266;SDS011;31998;48.798;15.066;2023-06-22T05:04:21;11.63;;;6.20;;
46266;SDS011;31998;48.798;15.066;2023-06-22T05:06:48;26.27;;;6.77;;
46266;SDS011;31998;48.798;15.066;2023-06-22T05:09:13;11.10;;;6.60;;
46266;SDS011;31998;48.798;15.066;2023-06-22T05:11:38;9.40;;;6.57;;
46266;SDS011;31998;48.798;15.066;2023-06-22T05:14:03;8.50;;;5.50;;
46266;SDS011;31998;48.798;15.066;2023-06-22T05:16:29;11.30;;;7.60;;
46266;SDS011;31998;48.798;15.066;2023-06-22T05:18:54;8.70;;;7.17;;
46266;SDS011;31998;48.798;15.066;2023-06-22T05:21:24;6.23;;;5.70;;
46266;SDS011;31998;48.798;15.066;2023-06-22T05:23:49;9.93;;;6.70;;
46266;SDS011;31998;48.798;15.066;2023-06-22T05:26:15;11.97;;;7.30;;
46266;SDS011;31998;48.798;15.066;2023-06-22T05:28:40;11.23;;;8.13;;
46266;SDS011;31998;48.798;15.066;2023-06-22T05:31:05;8.70;;;7.27;;
46266;SDS011;31998;48.798;15.066;2023-06-22T05:33:30;8.23;;;7.37;;
46266;SDS011;31998;48.798;15.066;2023-06-22T05:35:56;10.20;;;7.17;;
46266;SDS011;31998;48.798;15.066;2023-06-22T05:38:21;8.90;;;6.30;;
46266;SDS011;31998;48.798;15.066;2023-06-22T05:40:46;13.47;;;6.77;;
46266;SDS011;31998;48.798;15.066;2023-06-22T05:43:11;19.70;;;6.90;;
46266;SDS011;31998;48.798;15.066;2023-06-22T05:45:37;12.23;;;7.23;;
46266;SDS011;31998;48.798;15.066;2023-06-22T05:48:02;13.53;;;7.97;;
46266;SDS011;31998;48.798;15.066;2023-06-22T05:50:27;18.30;;;7.50;;
46266;SDS011;31998;48.798;15.066;2023-06-22T05:52:53;14.53;;;7.10;;
46266;SDS011;31998;48.798;15.066;2023-06-22T05:55:18;13.07;;;7.60;;
46266;SDS011;31998;48.798;15.066;2023-06-22T05:57:44;15.13;;;7.67;;
46266;SDS011;31998;48.798;15.066;2023-06-22T06:00:09;9.17;;;7.60;;
46266;SDS011;31998;48.798;15.066;2023-06-22T06:02:36;13.33;;;7.90;;
46266;SDS011;31998;48.798;15.066;2023-06-22T06:05:01;10.60;;;6.70;;
46266;SDS011;31998;48.798;15.066;2023-06-22T06:07:27;9.27;;;6.93;;
46266;SDS011;31998;48.798;15.066;2023-06-22T06:09:52;10.93;;;7.67;;
46266;SDS011;31998;48.798;15.066;2023-06-22T06:12:18;13.87;;;7.60;;
46266;SDS011;31998;48.798;15.066;2023-06-22T06:14:43;11.43;;;7.30;;
46266;SDS011;31998;48.798;15.066;2023-06-22T06:17:08;8.03;;;7.20;;
46266;SDS011;31998;48.798;15.066;2023-06-22T06:19:33;8.10;;;7.50;;
46266;SDS011;31998;48.798;15.066;2023-06-22T06:21:59;9.30;;;8.00;;
46266;SDS011;31998;48.798;15.066;2023-06-22T06:24:26;17.00;;;9.73;;
46266;SDS011;31998;48.798;15.066;2023-06-22T06:26:51;11.97;;;8.10;;
46266;SDS011;31998;48.798;15.066;2023-06-22T06:29:16;10.30;;;7.40;;
46266;SDS011;31998;48.798;15.066;2023-06-22T06:31:42;8.10;;;7.40;;
46266;SDS011;31998;48.798;15.066;2023-06-22T06:34:07;13.90;;;8.13;;
46266;SDS011;31998;48.798;15.066;2023-06-22T06:36:32;7.93;;;7.33;;
46266;SDS011;31998;48.798;15.066;2023-06-22T06:38:57;7.10;;;6.60;;
46266;SDS011;31998;48.798;15.066;2023-06-22T06:41:23;7.13;;;6.63;;
46266;SDS011;31998;48.798;15.066;2023-06-22T06:43:48;13.13;;;7.63;;
46266;SDS011;31998;48.798;15.066;2023-06-22T06:46:14;7.77;;;6.87;;
46266;SDS011;31998;48.798;15.066;2023-06-22T06:48:39;7.40;;;6.70;;
46266;SDS011;31998;48.798;15.066;2023-06-22T06:51:04;12.27;;;6.33;;
46266;SDS011;31998;48.798;15.066;2023-06-22T06:53:30;7.87;;;7.00;;
46266;SDS011;31998;48.798;15.066;2023-06-22T06:55:55;6.70;;;6.03;;
46266;SDS011;31998;48.798;15.066;2023-06-22T06:58:21;8.07;;;6.70;;
46266;SDS011;31998;48.798;15.066;2023-06-22T07:00:47;6.57;;;5.90;;
46266;SDS011;31998;48.798;15.066;2023-06-22T07:03:13;8.07;;;5.60;;
46266;SDS011;31998;48.798;15.066;2023-06-22T07:05:38;8.50;;;5.93;;
46266;SDS011;31998;48.798;15.066;2023-06-22T07:08:03;6.03;;;5.50;;
46266;SDS011;31998;48.798;15.066;2023-06-22T07:10:29;7.23;;;5.63;;
46266;SDS011;31998;48.798;15.066;2023-06-22T07:12:54;5.77;;;5.30;;
46266;SDS011;31998;48.798;15.066;2023-06-22T07:15:19;6.20;;;5.60;;
46266;SDS011;31998;48.798;15.066;2023-06-22T07:17:45;6.53;;;5.87;;
46266;SDS011;31998;48.798;15.066;2023-06-22T07:20:10;6.13;;;5.43;;
46266;SDS011;31998;48.798;15.066;2023-06-22T07:22:40;6.47;;;5.07;;
46266;SDS011;31998;48.798;15.066;2023-06-22T07:25:05;13.33;;;5.93;;
46266;SDS011;31998;48.798;15.066;2023-06-22T07:27:37;6.40;;;5.80;;
46266;SDS011;31998;48.798;15.066;2023-06-22T07:30:03;6.03;;;5.27;;
46266;SDS011;31998;48.798;15.066;2023-06-22T07:32:28;5.37;;;4.97;;
46266;SDS011;31998;48.798;15.066;2023-06-22T07:34:54;10.63;;;5.70;;
46266;SDS011;31998;48.798;15.066;2023-06-22T07:37:19;9.63;;;6.40;;
46266;SDS011;31998;48.798;15.066;2023-06-22T07:39:44;6.63;;;5.63;;
46266;SDS011;31998;48.798;15.066;2023-06-22T07:42:09;6.00;;;5.23;;
46266;SDS011;31998;48.798;15.066;2023-06-22T07:44:35;8.53;;;6.03;;
46266;SDS011;31998;48.798;15.066;2023-06-22T07:47:00;10.10;;;5.57;;
46266;SDS011;31998;48.798;15.066;2023-06-22T07:49:25;6.13;;;5.63;;
46266;SDS011;31998;48.798;15.066;2023-06-22T07:51:51;5.90;;;5.60;;
46266;SDS011;31998;48.798;15.066;2023-06-22T07:54:16;7.87;;;5.20;;
46266;SDS011;31998;48.798;15.066;2023-06-22T07:56:42;7.23;;;5.17;;
46266;SDS011;31998;48.798;15.066;2023-06-22T07:59:08;9.90;;;6.23;;
46266;SDS011;31998;48.798;15.066;2023-06-22T08:01:33;6.10;;;5.33;;
46266;SDS011;31998;48.798;15.066;2023-06-22T08:03:58;7.47;;;6.07;;
46266;SDS011;31998;48.798;15.066;2023-06-22T08:06:24;5.03;;;4.63;;
46266;SDS011;31998;48.798;15.066;2023-06-22T08:08:49;11.03;;;5.70;;
46266;SDS011;31998;48.798;15.066;2023-06-22T08:11:14;8.17;;;4.67;;
46266;SDS011;31998;48.798;15.066;2023-06-22T08:13:40;5.90;;;5.40;;
46266;SDS011;31998;48.798;15.066;2023-06-22T08:16:05;6.53;;;5.87;;
46266;SDS011;31998;48.798;15.066;2023-06-22T08:18:30;5.20;;;4.80;;
46266;SDS011;31998;48.798;15.066;2023-06-22T08:20:55;6.03;;;5.43;;
46266;SDS011;31998;48.798;15.066;2023-06-22T08:23:21;4.70;;;4.33;;
46266;SDS011;31998;48.798;15.066;2023-06-22T08:25:46;6.33;;;5.83;;
46266;SDS011;31998;48.798;15.066;2023-06-22T08:28:13;11.77;;;5.43;;
46266;SDS011;31998;48.798;15.066;2023-06-22T08:30:38;8.53;;;5.50;;
46266;SDS011;31998;48.798;15.066;2023-06-22T08:33:03;6.73;;;5.07;;
46266;SDS011;31998;48.798;15.066;2023-06-22T08:35:28;6.90;;;4.97;;
46266;SDS011;31998;48.798;15.066;2023-06-22T08:37:54;5.70;;;5.17;;
46266;SDS011;31998;48.798;15.066;2023-06-22T08:40:20;10.47;;;4.90;;
46266;SDS011;31998;48.798;15.066;2023-06-22T08:42:46;5.13;;;4.80;;
46266;SDS011;31998;48.798;15.066;2023-06-22T08:45:12;9.23;;;5.10;;
46266;SDS011;31998;48.798;15.066;2023-06-22T08:47:37;8.57;;;5.93;;
46266;SDS011;31998;48.798;15.066;2023-06-22T08:50:03;5.70;;;5.13;;
46266;SDS011;31998;48.798;15.066;2023-06-22T08:52:28;5.13;;;4.63;;
46266;SDS011;31998;48.798;15.066;2023-06-22T08:54:54;10.13;;;5.30;;
46266;SDS011;31998;48.798;15.066;2023-06-22T08:57:19;5.30;;;4.80;;
46266;SDS011;31998;48.798;15.066;2023-06-22T08:59:44;5.23;;;4.33;;
46266;SDS011;31998;48.798;15.066;2023-06-22T09:02:09;7.07;;;4.93;;
46266;SDS011;31998;48.798;15.066;2023-06-22T09:04:35;6.07;;;5.13;;
46266;SDS011;31998;48.798;15.066;2023-06-22T09:07:00;5.50;;;5.00;;
46266;SDS011;31998;48.798;15.066;2023-06-22T09:09:26;10.93;;;5.30;;
46266;SDS011;31998;48.798;15.066;2023-06-22T09:11:51;8.77;;;5.60;;
46266;SDS011;31998;48.798;15.066;2023-06-22T09:14:16;8.83;;;5.60;;
46266;SDS011;31998;48.798;15.066;2023-06-22T09:16:41;5.07;;;4.77;;
46266;SDS011;31998;48.798;15.066;2023-06-22T09:19:06;5.67;;;5.13;;
46266;SDS011;31998;48.798;15.066;2023-06-22T09:21:32;7.07;;;5.53;;
46266;SDS011;31998;48.798;15.066;2023-06-22T09:23:57;8.00;;;6.10;;
46266;SDS011;31998;48.798;15.066;2023-06-22T09:26:22;15.77;;;5.60;;
46266;SDS011;31998;48.798;15.066;2023-06-22T09:28:49;8.13;;;5.70;;
46266;SDS011;31998;48.798;15.066;2023-06-22T09:31:14;8.10;;;5.67;;
46266;SDS011;31998;48.798;15.066;2023-06-22T09:33:41;11.23;;;6.07;;
46266;SDS011;31998;48.798;15.066;2023-06-22T09:36:07;6.27;;;4.87;;
46266;SDS011;31998;48.798;15.066;2023-06-22T09:38:35;5.50;;;5.00;;
46266;SDS011;31998;48.798;15.066;2023-06-22T09:41:00;6.00;;;5.13;;
46266;SDS011;31998;48.798;15.066;2023-06-22T09:43:26;6.07;;;5.57;;
46266;SDS011;31998;48.798;15.066;2023-06-22T09:45:52;23.77;;;6.13;;
46266;SDS011;31998;48.798;15.066;2023-06-22T09:48:17;6.33;;;5.40;;
46266;SDS011;31998;48.798;15.066;2023-06-22T09:50:42;7.87;;;6.40;;
46266;SDS011;31998;48.798;15.066;2023-06-22T09:53:07;10.37;;;5.30;;
46266;SDS011;31998;48.798;15.066;2023-06-22T09:55:33;6.40;;;5.80;;
46266;SDS011;31998;48.798;15.066;2023-06-22T09:57:58;11.20;;;6.10;;
46266;SDS011;31998;48.798;15.066;2023-06-22T10:00:23;6.93;;;5.33;;
46266;SDS011;31998;48.798;15.066;2023-06-22T10:02:48;8.50;;;5.10;;
46266;SDS011;31998;48.798;15.066;2023-06-22T10:05:14;15.30;;;5.97;;
46266;SDS011;31998;48.798;15.066;2023-06-22T10:07:39;9.93;;;5.60;;
46266;SDS011;31998;48.798;15.066;2023-06-22T10:10:07;13.07;;;5.10;;
46266;SDS011;31998;48.798;15.066;2023-06-22T10:12:46;5.30;;;4.80;;
46266;SDS011;31998;48.798;15.066;2023-06-22T10:15:12;6.60;;;6.00;;
46266;SDS011;31998;48.798;15.066;2023-06-22T10:17:37;11.60;;;5.37;;
46266;SDS011;31998;48.798;15.066;2023-06-22T10:20:02;6.90;;;6.27;;
46266;SDS011;31998;48.798;15.066;2023-06-22T10:22:38;5.70;;;5.00;;
46266;SDS011;31998;48.798;15.066;2023-06-22T10:25:03;6.70;;;5.20;;
46266;SDS011;31998;48.798;15.066;2023-06-22T10:27:28;5.80;;;5.30;;
46266;SDS011;31998;48.798;15.066;2023-06-22T10:29:53;7.70;;;5.90;;
46266;SDS011;31998;48.798;15.066;2023-06-22T10:32:19;9.33;;;5.37;;
46266;SDS011;31998;48.798;15.066;2023-06-22T10:34:44;9.40;;;5.13;;
46266;SDS011;31998;48.798;15.066;2023-06-22T10:37:09;6.10;;;4.77;;
46266;SDS011;31998;48.798;15.066;2023-06-22T10:39:34;7.23;;;5.30;;
46266;SDS011;31998;48.798;15.066;2023-06-22T10:41:59;10.63;;;5.17;;
46266;SDS011;31998;48.798;15.066;2023-06-22T10:44:25;7.07;;;5.57;;
46266;SDS011;31998;48.798;15.066;2023-06-22T10:46:50;6.50;;;5.30;;
46266;SDS011;31998;48.798;15.066;2023-06-22T10:49:15;9.43;;;5.27;;
46266;SDS011;31998;48.798;15.066;2023-06-22T10:51:40;8.40;;;5.33;;
46266;SDS011;31998;48.798;15.066;2023-06-22T10:54:06;15.60;;;5.30;;
46266;SDS011;31998;48.798;15.066;2023-06-22T10:56:31;4.83;;;4.43;;
46266;SDS011;31998;48.798;15.066;2023-06-22T10:58:58;9.63;;;5.00;;
46266;SDS011;31998;48.798;15.066;2023-06-22T11:01:24;5.80;;;4.43;;
46266;SDS011;31998;48.798;15.066;2023-06-22T11:03:49;8.90;;;4.80;;
46266;SDS011;31998;48.798;15.066;2023-06-22T11:06:14;6.40;;;4.60;;
46266;SDS011;31998;48.798;15.066;2023-06-22T11:08:40;6.07;;;4.47;;
46266;SDS011;31998;48.798;15.066;2023-06-22T11:11:05;7.67;;;4.63;;
46266;SDS011;31998;48.798;15.066;2023-06-22T11:13:30;10.70;;;4.27;;
46266;SDS011;31998;48.798;15.066;2023-06-22T11:15:55;10.10;;;4.33;;
46266;SDS011;31998;48.798;15.066;2023-06-22T11:18:21;15.63;;;5.80;;
46266;SDS011;31998;48.798;15.066;2023-06-22T11:20:48;8.27;;;5.43;;
46266;SDS011;31998;48.798;15.066;2023-06-22T11:23:14;10.90;;;4.87;;
46266;SDS011;31998;48.798;15.066;2023-06-22T11:25:39;8.23;;;4.23;;
46266;SDS011;31998;48.798;15.066;2023-06-22T11:28:06;5.70;;;3.77;;
46266;SDS011;31998;48.798;15.066;2023-06-22T11:30:32;7.50;;;4.60;;
46266;SDS011;31998;48.798;15.066;2023-06-22T11:32:58;7.20;;;4.00;;
46266;SDS011;31998;48.798;15.066;2023-06-22T11:35:23;6.70;;;3.60;;
46266;SDS011;31998;48.798;15.066;2023-06-22T11:37:49;9.30;;;4.40;;
46266;SDS011;31998;48.798;15.066;2023-06-22T11:40:14;6.40;;;3.90;;
46266;SDS011;31998;48.798;15.066;2023-06-22T11:42:39;15.63;;;4.60;;
46266;SDS011;31998;48.798;15.066;2023-06-22T11:45:05;6.23;;;3.90;;
46266;SDS011;31998;48.798;15.066;2023-06-22T11:47:30;4.37;;;3.90;;
46266;SDS011;31998;48.798;15.066;2023-06-22T11:49:55;6.30;;;3.90;;
46266;SDS011;31998;48.798;15.066;2023-06-22T11:52:21;7.23;;;4.60;;
46266;SDS011;31998;48.798;15.066;2023-06-22T11:54:46;4.63;;;4.23;;
46266;SDS011;31998;48.798;15.066;2023-06-22T11:57:11;4.67;;;4.27;;
46266;SDS011;31998;48.798;15.066;2023-06-22T11:59:36;14.43;;;5.00;;
46266;SDS011;31998;48.798;15.066;2023-06-22T12:02:02;7.80;;;4.57;;
46266;SDS011;31998;48.798;15.066;2023-06-22T12:04:28;5.23;;;3.50;;
46266;SDS011;31998;48.798;15.066;2023-06-22T12:06:53;5.77;;;4.30;;
46266;SDS011;31998;48.798;15.066;2023-06-22T12:09:18;9.27;;;4.93;;
46266;SDS011;31998;48.798;15.066;2023-06-22T12:11:44;8.53;;;4.83;;
46266;SDS011;31998;48.798;15.066;2023-06-22T12:14:09;5.13;;;4.53;;
46266;SDS011;31998;48.798;15.066;2023-06-22T12:16:34;13.13;;;4.47;;
46266;SDS011;31998;48.798;15.066;2023-06-22T12:19:00;7.53;;;4.60;;
46266;SDS011;31998;48.798;15.066;2023-06-22T12:21:25;8.40;;;5.43;;
46266;SDS011;31998;48.798;15.066;2023-06-22T12:23:50;6.53;;;4.40;;
46266;SDS011;31998;48.798;15.066;2023-06-22T12:26:15;11.77;;;4.73;;
46266;SDS011;31998;48.798;15.066;2023-06-22T12:28:41;10.50;;;4.37;;
46266;SDS011;31998;48.798;15.066;2023-06-22T12:31:06;12.30;;;4.20;;
46266;SDS011;31998;48.798;15.066;2023-06-22T12:33:31;10.13;;;4.07;;
46266;SDS011;31998;48.798;15.066;2023-06-22T12:35:57;5.23;;;3.77;;
46266;SDS011;31998;48.798;15.066;2023-06-22T12:38:22;13.93;;;5.30;;
46266;SDS011;31998;48.798;15.066;2023-06-22T12:40:49;7.23;;;4.40;;
46266;SDS011;31998;48.798;15.066;2023-06-22T12:43:14;5.70;;;4.30;;
46266;SDS011;31998;48.798;15.066;2023-06-22T12:45:39;9.03;;;4.60;;
46266;SDS011;31998;48.798;15.066;2023-06-22T12:48:05;15.60;;;4.47;;
46266;SDS011;31998;48.798;15.066;2023-06-22T12:50:30;4.77;;;4.20;;
46266;SDS011;31998;48.798;15.066;2023-06-22T12:52:56;10.57;;;5.30;;
46266;SDS011;31998;48.798;15.066;2023-06-22T12:55:21;4.70;;;4.30;;
46266;SDS011;31998;48.798;15.066;2023-06-22T12:57:46;7.83;;;3.93;;
46266;SDS011;31998;48.798;15.066;2023-06-22T13:00:12;5.47;;;3.87;;
46266;SDS011;31998;48.798;15.066;2023-06-22T13:02:37;11.80;;;5.97;;
46266;SDS011;31998;48.798;15.066;2023-06-22T13:05:02;7.13;;;4.20;;
46266;SDS011;31998;48.798;15.066;2023-06-22T13:07:30;11.87;;;5.47;;
46266;SDS011;31998;48.798;15.066;2023-06-22T13:09:55;9.33;;;4.93;;
46266;SDS011;31998;48.798;15.066;2023-06-22T13:12:20;9.40;;;5.40;;
46266;SDS011;31998;48.798;15.066;2023-06-22T13:14:46;10.37;;;4.87;;
46266;SDS011;31998;48.798;15.066;2023-06-22T13:17:12;11.10;;;4.83;;
46266;SDS011;31998;48.798;15.066;2023-06-22T13:19:37;9.97;;;5.00;;
46266;SDS011;31998;48.798;15.066;2023-06-22T13:22:02;10.33;;;5.27;;
46266;SDS011;31998;48.798;15.066;2023-06-22T13:24:28;12.63;;;4.60;;
46266;SDS011;31998;48.798;15.066;2023-06-22T13:26:54;5.77;;;4.60;;
46266;SDS011;31998;48.798;15.066;2023-06-22T13:29:20;8.70;;;4.97;;
46266;SDS011;31998;48.798;15.066;2023-06-22T13:31:45;12.90;;;5.33;;
46266;SDS011;31998;48.798;15.066;2023-06-22T13:34:10;9.07;;;4.73;;
46266;SDS011;31998;48.798;15.066;2023-06-22T13:36:35;9.80;;;5.37;;
46266;SDS011;31998;48.798;15.066;2023-06-22T13:39:01;10.70;;;5.33;;
46266;SDS011;31998;48.798;15.066;2023-06-22T13:41:26;7.20;;;4.40;;
46266;SDS011;31998;48.798;15.066;2023-06-22T13:43:51;7.93;;;4.80;;
46266;SDS011;31998;48.798;15.066;2023-06-22T13:46:16;8.27;;;4.97;;
46266;SDS011;31998;48.798;15.066;2023-06-22T13:48:42;11.17;;;4.60;;
46266;SDS011;31998;48.798;15.066;2023-06-22T13:51:07;10.83;;;5.10;;
46266;SDS011;31998;48.798;15.066;2023-06-22T13:53:32;8.90;;;4.77;;
46266;SDS011;31998;48.798;15.066;2023-06-22T13:55:58;13.47;;;4.93;;
46266;SDS011;31998;48.798;15.066;2023-06-22T13:58:23;6.87;;;4.27;;
46266;SDS011;31998;48.798;15.066;2023-06-22T14:00:48;12.00;;;5.20;;
46266;SDS011;31998;48.798;15.066;2023-06-22T14:03:14;8.13;;;5.37;;
46266;SDS011;31998;48.798;15.066;2023-06-22T14:05:41;7.83;;;4.37;;
46266;SDS011;31998;48.798;15.066;2023-06-22T14:08:06;13.23;;;4.90;;
46266;SDS011;31998;48.798;15.066;2023-06-22T14:10:31;17.30;;;5.40;;
46266;SDS011;31998;48.798;15.066;2023-06-22T14:12:57;8.57;;;4.33;;
46266;SDS011;31998;48.798;15.066;2023-06-22T14:15:22;15.67;;;5.47;;
46266;SDS011;31998;48.798;15.066;2023-06-22T14:17:47;10.83;;;4.10;;
46266;SDS011;31998;48.798;15.066;2023-06-22T14:20:13;13.70;;;4.43;;
46266;SDS011;31998;48.798;15.066;2023-06-22T14:22:38;11.90;;;4.70;;
46266;SDS011;31998;48.798;15.066;2023-06-22T14:25:05;11.10;;;5.20;;
46266;SDS011;31998;48.798;15.066;2023-06-22T14:27:30;9.23;;;5.30;;